Time;durP1;ratioP1;P1;durP2;ratioP2;P2;SDS_P1;SDS_P2;PMS_P1;PMS_P2;Temp;Humidity;BMP_temperature;BMP_pressure;BME280_temperature;BME280_humidity;BME280_pressure;Samples;Min_cycle;Max_cycle;Signal;HPM_P1;HPM_P2
2023/07/05 00:00:47;;;;;;;8.93;7.53;;;;;;;;;;5033380;28;20819;-75
2023/07/05 00:03:14;;;;;;;11.30;8.00;;;;;;;;;;5034419;28;20486;-75
2023/07/05 00:05:41;;;;;;;9.20;6.70;;;;;;;;;;5037170;28;20477;-75
2023/07/05 00:08:07;;;;;;;9.97;6.70;;;;;;;;;;5039826;28;20510;-75
2023/07/05 00:10:36;;;;;;;9.47;6.80;;;;;;;;;;5036359;28;20481;-75
2023/07/05 00:13:02;;;;;;;9.50;6.90;;;;;;;;;;5035349;28;20489;-77
2023/07/05 00:15:29;;;;;;;11.90;6.87;;;;;;;;;;5035148;28;20551;-76
2023/07/05 00:17:56;;;;;;;10.40;7.27;;;;;;;;;;5039288;28;21028;-76
2023/07/05 00:20:23;;;;;;;13.93;6.60;;;;;;;;;;5037775;28;20533;-76
2023/07/05 00:22:50;;;;;;;12.33;7.07;;;;;;;;;;5033735;28;20469;-76
2023/07/05 00:25:16;;;;;;;11.30;7.33;;;;;;;;;;5038383;28;20906;-76
2023/07/05 00:27:44;;;;;;;9.30;7.07;;;;;;;;;;5034695;28;20510;-77
2023/07/05 00:30:11;;;;;;;10.33;6.70;;;;;;;;;;5035912;28;20462;-76
2023/07/05 00:32:38;;;;;;;8.90;6.63;;;;;;;;;;5033020;28;20489;-77
2023/07/05 00:35:04;;;;;;;9.60;7.00;;;;;;;;;;5038168;28;20450;-76
2023/07/05 00:37:31;;;;;;;11.80;7.13;;;;;;;;;;5040228;28;20461;-76
2023/07/05 00:39:57;;;;;;;9.67;6.40;;;;;;;;;;5036862;28;20485;-76
2023/07/05 00:42:24;;;;;;;9.63;7.33;;;;;;;;;;5031116;28;20482;-76
2023/07/05 00:45:25;;;;;;;9.13;6.90;;;;;;;;;;5038172;28;20445;-76
2023/07/05 00:47:52;;;;;;;12.73;7.80;;;;;;;;;;5025377;28;20528;-75
2023/07/05 00:50:21;;;;;;;11.20;7.70;;;;;;;;;;5038443;28;20449;-76
2023/07/05 00:52:48;;;;;;;12.40;7.50;;;;;;;;;;5039665;28;20537;-75
2023/07/05 00:55:14;;;;;;;9.50;7.67;;;;;;;;;;5033031;28;20477;-75
2023/07/05 00:57:41;;;;;;;10.23;7.30;;;;;;;;;;5042856;28;20446;-75
2023/07/05 01:00:12;;;;;;;9.97;7.70;;;;;;;;;;5037467;28;20512;-77
2023/07/05 01:02:40;;;;;;;10.10;7.63;;;;;;;;;;5038756;28;20504;-77
2023/07/05 01:05:08;;;;;;;9.20;7.20;;;;;;;;;;5032416;28;20450;-77
2023/07/05 01:07:34;;;;;;;10.80;6.83;;;;;;;;;;5002540;28;1122397;-76
2023/07/05 01:10:00;;;;;;;16.00;7.57;;;;;;;;;;5036968;28;20726;-76
2023/07/05 01:12:35;;;;;;;12.03;7.40;;;;;;;;;;5042267;28;20496;-76
2023/07/05 01:15:04;;;;;;;11.40;8.20;;;;;;;;;;5044024;28;21100;-75
2023/07/05 01:17:39;;;;;;;11.33;7.60;;;;;;;;;;5037881;28;20536;-76
2023/07/05 01:20:17;;;;;;;12.00;6.93;;;;;;;;;;5042155;28;20522;-76
2023/07/05 01:22:59;;;;;;;10.13;8.10;;;;;;;;;;5040027;28;20453;-76
2023/07/05 01:25:41;;;;;;;11.43;8.07;;;;;;;;;;5039663;28;20474;-76
2023/07/05 01:28:16;;;;;;;13.60;7.73;;;;;;;;;;5043031;28;20513;-75
2023/07/05 01:31:01;;;;;;;12.67;8.53;;;;;;;;;;5040522;28;20556;-75
2023/07/05 01:33:32;;;;;;;15.03;8.77;;;;;;;;;;5043538;28;20453;-76
2023/07/05 01:35:59;;;;;;;12.60;9.37;;;;;;;;;;5044719;28;20470;-75
2023/07/05 01:38:25;;;;;;;12.60;9.10;;;;;;;;;;5039175;28;20536;-75
2023/07/05 01:41:00;;;;;;;12.67;8.40;;;;;;;;;;5040798;28;20513;-75
2023/07/05 01:43:28;;;;;;;10.67;7.97;;;;;;;;;;5039315;28;21041;-75
2023/07/05 01:46:00;;;;;;;13.17;7.50;;;;;;;;;;5035781;28;20586;-76
2023/07/05 01:48:32;;;;;;;11.87;8.23;;;;;;;;;;5038670;28;20496;-75
2023/07/05 01:51:02;;;;;;;10.03;8.93;;;;;;;;;;5042562;28;20501;-75
2023/07/05 01:53:33;;;;;;;16.30;8.90;;;;;;;;;;5038901;28;20481;-75
2023/07/05 01:56:03;;;;;;;12.73;9.53;;;;;;;;;;5026206;28;20454;-74
2023/07/05 01:58:30;;;;;;;13.40;9.10;;;;;;;;;;5043021;28;20465;-75
2023/07/05 02:00:58;;;;;;;15.97;10.13;;;;;;;;;;5041503;28;20492;-75
2023/07/05 02:03:24;;;;;;;15.07;9.73;;;;;;;;;;5030242;28;20493;-75
2023/07/05 02:05:52;;;;;;;20.67;9.50;;;;;;;;;;5031118;28;20505;-75
2023/07/05 02:08:19;;;;;;;12.83;9.70;;;;;;;;;;5042211;28;20493;-75
2023/07/05 02:10:45;;;;;;;11.13;8.70;;;;;;;;;;5039860;28;20544;-75
2023/07/05 02:13:12;;;;;;;15.53;8.97;;;;;;;;;;5033029;28;20513;-75
2023/07/05 02:15:38;;;;;;;12.87;9.57;;;;;;;;;;5037786;28;20476;-75
2023/07/05 02:18:05;;;;;;;16.53;9.97;;;;;;;;;;5039876;28;20868;-75
2023/07/05 02:20:31;;;;;;;14.30;9.07;;;;;;;;;;5031155;28;20446;-75
2023/07/05 02:22:59;;;;;;;11.10;9.50;;;;;;;;;;5038992;28;20466;-75
2023/07/05 02:25:26;;;;;;;14.10;9.23;;;;;;;;;;5036563;28;20449;-75
2023/07/05 02:27:52;;;;;;;9.77;8.77;;;;;;;;;;5042413;28;20536;-75
2023/07/05 02:30:18;;;;;;;13.23;9.37;;;;;;;;;;5040617;28;20500;-74
2023/07/05 02:32:45;;;;;;;12.03;9.30;;;;;;;;;;5036187;28;20541;-74
2023/07/05 02:35:11;;;;;;;13.73;9.73;;;;;;;;;;5040796;28;20503;-75
2023/07/05 02:37:37;;;;;;;10.30;9.17;;;;;;;;;;5040370;28;20541;-75
2023/07/05 02:40:06;;;;;;;14.30;10.53;;;;;;;;;;5037808;28;20470;-75
2023/07/05 02:42:33;;;;;;;12.20;9.83;;;;;;;;;;5029038;28;20466;-74
2023/07/05 02:44:59;;;;;;;14.77;10.77;;;;;;;;;;5034539;28;20497;-75
2023/07/05 02:47:25;;;;;;;10.57;9.47;;;;;;;;;;5034658;28;20581;-75
2023/07/05 02:49:52;;;;;;;14.13;10.77;;;;;;;;;;5040432;28;20488;-76
2023/07/05 02:52:18;;;;;;;14.93;10.17;;;;;;;;;;5037010;28;20465;-76
2023/07/05 02:54:45;;;;;;;21.17;10.40;;;;;;;;;;5037776;28;20470;-76
2023/07/05 02:57:12;;;;;;;15.60;11.23;;;;;;;;;;5039038;28;20533;-76
2023/07/05 02:59:39;;;;;;;15.00;11.97;;;;;;;;;;5037802;28;20450;-76
2023/07/05 03:02:05;;;;;;;12.17;10.57;;;;;;;;;;5026497;28;20462;-76
2023/07/05 03:04:32;;;;;;;12.30;9.80;;;;;;;;;;5041632;28;20513;-75
2023/07/05 03:06:58;;;;;;;11.20;9.60;;;;;;;;;;5038170;28;20544;-76
2023/07/05 03:09:24;;;;;;;10.80;9.00;;;;;;;;;;5037958;28;20445;-76
2023/07/05 03:11:51;;;;;;;12.60;9.93;;;;;;;;;;5037808;28;20552;-76
2023/07/05 03:14:18;;;;;;;11.67;9.93;;;;;;;;;;5033463;28;20492;-75
2023/07/05 03:16:45;;;;;;;12.53;9.20;;;;;;;;;;5038508;28;20947;-75
2023/07/05 03:19:11;;;;;;;11.23;9.77;;;;;;;;;;5032498;28;20564;-75
2023/07/05 03:21:38;;;;;;;14.63;9.40;;;;;;;;;;5028768;28;20541;-75
2023/07/05 03:24:04;;;;;;;12.37;9.20;;;;;;;;;;5039473;28;20521;-75
2023/07/05 03:26:31;;;;;;;11.17;9.70;;;;;;;;;;5035912;28;20493;-75
2023/07/05 03:28:57;;;;;;;10.53;8.70;;;;;;;;;;5038830;28;21271;-76
2023/07/05 03:31:25;;;;;;;10.33;9.23;;;;;;;;;;5031705;28;20520;-75
2023/07/05 03:33:52;;;;;;;17.23;11.20;;;;;;;;;;5035842;28;20486;-76
2023/07/05 03:36:19;;;;;;;10.60;9.00;;;;;;;;;;5039345;28;20453;-76
2023/07/05 03:38:46;;;;;;;11.53;9.47;;;;;;;;;;5034267;28;20494;-76
2023/07/05 03:41:13;;;;;;;12.93;9.57;;;;;;;;;;5040448;28;20493;-76
2023/07/05 03:43:40;;;;;;;9.97;8.87;;;;;;;;;;5039943;28;20492;-76
2023/07/05 03:46:08;;;;;;;13.37;9.37;;;;;;;;;;5031597;28;20457;-75
2023/07/05 03:48:38;;;;;;;10.60;9.17;;;;;;;;;;5039818;28;20525;-75
2023/07/05 03:51:04;;;;;;;13.67;9.23;;;;;;;;;;5038534;28;20497;-75
2023/07/05 03:53:33;;;;;;;10.20;8.83;;;;;;;;;;5027253;28;20485;-74
2023/07/05 03:56:00;;;;;;;11.37;9.60;;;;;;;;;;5034933;28;20441;-75
2023/07/05 03:58:26;;;;;;;12.87;9.77;;;;;;;;;;5040110;28;20485;-74
2023/07/05 04:00:53;;;;;;;13.60;10.00;;;;;;;;;;5032773;28;20454;-74
2023/07/05 04:03:19;;;;;;;17.10;11.33;;;;;;;;;;5040667;28;20513;-75
2023/07/05 04:05:47;;;;;;;10.07;9.07;;;;;;;;;;5036757;28;20492;-74
2023/07/05 04:08:14;;;;;;;11.53;9.37;;;;;;;;;;5038852;28;21054;-74
2023/07/05 04:10:46;;;;;;;14.17;9.90;;;;;;;;;;5040976;28;20513;-75
2023/07/05 04:13:13;;;;;;;11.87;8.93;;;;;;;;;;5029899;28;20477;-74
2023/07/05 04:15:39;;;;;;;14.20;8.90;;;;;;;;;;5039716;28;20473;-74
2023/07/05 04:18:06;;;;;;;9.17;7.67;;;;;;;;;;5036337;28;20537;-75
2023/07/05 04:20:32;;;;;;;7.47;6.63;;;;;;;;;;5042195;28;20527;-75
2023/07/05 04:23:00;;;;;;;7.90;5.87;;;;;;;;;;5040174;28;20485;-75
2023/07/05 04:25:27;;;;;;;8.17;5.90;;;;;;;;;;5040581;28;20450;-75
2023/07/05 04:27:53;;;;;;;8.70;5.93;;;;;;;;;;5039670;28;20552;-75
2023/07/05 04:30:19;;;;;;;9.70;5.50;;;;;;;;;;5030553;28;21092;-75
2023/07/05 04:32:46;;;;;;;5.77;4.87;;;;;;;;;;5029479;28;20524;-75
2023/07/05 04:35:12;;;;;;;8.00;5.37;;;;;;;;;;5039691;28;20533;-76
2023/07/05 04:37:39;;;;;;;7.00;5.03;;;;;;;;;;5038252;28;20524;-75
2023/07/05 04:40:07;;;;;;;5.13;4.70;;;;;;;;;;5033183;28;20450;-76
2023/07/05 04:42:34;;;;;;;5.70;4.90;;;;;;;;;;5038716;28;20493;-77
2023/07/05 04:45:01;;;;;;;10.93;4.20;;;;;;;;;;5040201;28;20509;-75
2023/07/05 04:47:28;;;;;;;6.27;4.57;;;;;;;;;;5033784;28;20509;-76
2023/07/05 04:49:54;;;;;;;7.80;5.37;;;;;;;;;;5037601;28;20474;-77
2023/07/05 04:52:20;;;;;;;8.40;4.83;;;;;;;;;;5034720;28;20556;-77
2023/07/05 04:54:47;;;;;;;5.43;4.60;;;;;;;;;;5037517;28;20462;-76
2023/07/05 04:57:14;;;;;;;5.13;4.27;;;;;;;;;;5037881;28;20458;-75
2023/07/05 04:59:43;;;;;;;5.80;4.63;;;;;;;;;;5038633;28;20450;-77
2023/07/05 05:02:09;;;;;;;4.83;4.20;;;;;;;;;;5038331;28;20935;-75
2023/07/05 05:04:36;;;;;;;6.57;4.57;;;;;;;;;;5026195;28;20468;-77
2023/07/05 05:07:02;;;;;;;5.27;4.80;;;;;;;;;;5037959;28;20494;-77
2023/07/05 05:09:29;;;;;;;5.00;3.80;;;;;;;;;;5035654;28;20464;-77
2023/07/05 05:11:55;;;;;;;5.53;4.00;;;;;;;;;;5032976;28;20557;-77
2023/07/05 05:14:23;;;;;;;4.37;3.93;;;;;;;;;;5035815;28;20501;-77
2023/07/05 05:16:50;;;;;;;4.30;3.90;;;;;;;;;;5037063;28;21029;-76
2023/07/05 05:19:16;;;;;;;4.87;3.53;;;;;;;;;;5037193;28;20477;-75
2023/07/05 05:21:43;;;;;;;4.73;2.90;;;;;;;;;;5037791;28;20505;-75
2023/07/05 05:24:09;;;;;;;3.30;2.67;;;;;;;;;;5038089;28;20514;-76
2023/07/05 05:26:35;;;;;;;2.93;2.57;;;;;;;;;;5037948;28;20487;-75
2023/07/05 05:29:02;;;;;;;4.80;2.97;;;;;;;;;;5032826;28;21272;-76
2023/07/05 05:31:30;;;;;;;5.93;2.83;;;;;;;;;;5036768;28;20548;-76
2023/07/05 05:33:57;;;;;;;4.97;3.47;;;;;;;;;;5035634;28;20512;-75
2023/07/05 05:36:24;;;;;;;3.37;3.07;;;;;;;;;;5037372;28;20790;-77
2023/07/05 05:38:50;;;;;;;3.63;2.70;;;;;;;;;;5041414;28;20978;-77
2023/07/05 05:41:17;;;;;;;4.17;3.60;;;;;;;;;;5037364;28;20477;-78
2023/07/05 05:43:45;;;;;;;3.27;2.93;;;;;;;;;;5040934;28;20465;-74
2023/07/05 05:46:11;;;;;;;3.27;2.97;;;;;;;;;;5041027;28;21158;-76
2023/07/05 05:48:39;;;;;;;4.50;3.70;;;;;;;;;;5041457;28;20481;-74
2023/07/05 05:51:06;;;;;;;4.13;3.50;;;;;;;;;;5041798;28;20453;-77
2023/07/05 05:53:33;;;;;;;4.33;3.47;;;;;;;;;;5041601;28;20468;-77
2023/07/05 05:55:59;;;;;;;3.40;3.10;;;;;;;;;;5037917;28;20519;-77
2023/07/05 05:58:25;;;;;;;4.47;2.97;;;;;;;;;;5042779;28;20470;-76
2023/07/05 06:00:52;;;;;;;3.40;2.40;;;;;;;;;;5041481;28;20446;-79
2023/07/05 06:03:19;;;;;;;3.83;2.23;;;;;;;;;;5040202;28;21423;-77
2023/07/05 06:05:46;;;;;;;5.30;2.70;;;;;;;;;;5040410;28;20596;-76
2023/07/05 06:08:13;;;;;;;4.93;2.77;;;;;;;;;;5038766;28;20856;-76
2023/07/05 06:10:39;;;;;;;4.13;2.27;;;;;;;;;;5040217;28;20504;-78
2023/07/05 06:13:05;;;;;;;3.90;2.60;;;;;;;;;;5038251;28;20485;-76
2023/07/05 06:15:32;;;;;;;5.03;2.60;;;;;;;;;;5040465;28;21103;-77
2023/07/05 06:17:58;;;;;;;3.43;2.50;;;;;;;;;;5039572;28;20490;-80
2023/07/05 06:20:25;;;;;;;3.17;2.50;;;;;;;;;;5040492;28;20536;-76
2023/07/05 06:22:52;;;;;;;3.23;2.10;;;;;;;;;;5042156;28;20515;-78
2023/07/05 06:25:19;;;;;;;5.10;2.80;;;;;;;;;;5038742;28;20492;-75
2023/07/05 06:27:45;;;;;;;4.53;2.97;;;;;;;;;;5037634;28;20497;-75
2023/07/05 06:30:12;;;;;;;4.63;2.23;;;;;;;;;;5041175;28;20485;-75
2023/07/05 06:32:39;;;;;;;6.03;2.47;;;;;;;;;;5034805;28;20580;-76
2023/07/05 06:35:05;;;;;;;4.20;2.50;;;;;;;;;;5040589;28;20525;-75
2023/07/05 06:37:32;;;;;;;4.17;2.50;;;;;;;;;;5041985;28;20500;-77
2023/07/05 06:39:59;;;;;;;2.90;2.33;;;;;;;;;;5041067;28;20528;-75
2023/07/05 06:42:26;;;;;;;3.00;2.50;;;;;;;;;;5041283;28;20462;-75
2023/07/05 06:44:52;;;;;;;4.30;2.40;;;;;;;;;;5041305;28;20461;-76
2023/07/05 06:47:19;;;;;;;3.83;2.17;;;;;;;;;;5041781;28;20464;-76
2023/07/05 06:49:45;;;;;;;3.27;2.20;;;;;;;;;;5041350;28;20532;-77
2023/07/05 06:52:11;;;;;;;4.00;2.50;;;;;;;;;;5041940;28;20450;-76
2023/07/05 06:54:38;;;;;;;3.60;2.70;;;;;;;;;;5040431;28;20538;-75
2023/07/05 06:57:06;;;;;;;4.70;2.80;;;;;;;;;;5041051;28;20450;-75
2023/07/05 06:59:33;;;;;;;4.57;3.00;;;;;;;;;;5038851;28;20533;-75
2023/07/05 07:01:59;;;;;;;4.03;2.83;;;;;;;;;;5039591;28;20511;-75
2023/07/05 07:04:26;;;;;;;4.10;2.97;;;;;;;;;;5041213;28;20477;-75
2023/07/05 07:06:52;;;;;;;5.53;3.07;;;;;;;;;;5040805;28;20486;-75
2023/07/05 07:09:18;;;;;;;4.03;2.87;;;;;;;;;;5040622;28;20520;-75
2023/07/05 07:11:45;;;;;;;4.30;2.83;;;;;;;;;;5041277;28;20490;-75
2023/07/05 07:14:13;;;;;;;3.80;2.50;;;;;;;;;;5041401;28;20466;-75
2023/07/05 07:16:39;;;;;;;5.23;3.03;;;;;;;;;;5039890;28;20553;-75
2023/07/05 07:19:05;;;;;;;4.50;2.90;;;;;;;;;;5041369;28;20839;-75
2023/07/05 07:21:32;;;;;;;5.03;2.90;;;;;;;;;;5041993;28;20714;-76
2023/07/05 07:23:58;;;;;;;3.50;2.50;;;;;;;;;;5040587;28;20629;-76
2023/07/05 07:26:25;;;;;;;3.40;2.60;;;;;;;;;;5041651;28;20552;-76
2023/07/05 07:28:53;;;;;;;5.13;2.90;;;;;;;;;;5041730;28;20497;-76
2023/07/05 07:31:21;;;;;;;3.90;2.90;;;;;;;;;;5041670;28;20456;-76
2023/07/05 07:33:48;;;;;;;3.87;3.00;;;;;;;;;;5040842;28;20461;-80
2023/07/05 07:36:16;;;;;;;3.60;2.90;;;;;;;;;;5041580;28;20509;-74
2023/07/05 07:38:42;;;;;;;3.40;2.67;;;;;;;;;;5040967;28;20478;-75
2023/07/05 07:41:12;;;;;;;4.17;2.80;;;;;;;;;;5041201;28;20462;-79
2023/07/05 07:43:38;;;;;;;5.43;2.60;;;;;;;;;;5040276;28;20518;-75
2023/07/05 07:46:07;;;;;;;6.10;2.70;;;;;;;;;;5040654;28;20449;-77
2023/07/05 07:48:35;;;;;;;4.07;2.47;;;;;;;;;;5040733;28;20572;-75
2023/07/05 07:51:01;;;;;;;6.83;2.60;;;;;;;;;;5041361;28;20481;-75
2023/07/05 07:53:28;;;;;;;4.13;2.13;;;;;;;;;;5040396;28;20508;-77
2023/07/05 07:55:54;;;;;;;3.70;2.60;;;;;;;;;;5037278;28;20457;-75
2023/07/05 07:58:20;;;;;;;8.57;2.30;;;;;;;;;;5040091;28;20457;-77
2023/07/05 08:00:49;;;;;;;6.10;2.77;;;;;;;;;;5039457;28;20488;-75
2023/07/05 08:03:15;;;;;;;4.30;2.40;;;;;;;;;;5029235;28;20464;-82
2023/07/05 08:05:43;;;;;;;5.33;2.43;;;;;;;;;;5040119;28;20513;-78
2023/07/05 08:08:09;;;;;;;4.77;2.40;;;;;;;;;;5038307;28;21072;-77
2023/07/05 08:10:36;;;;;;;5.47;2.67;;;;;;;;;;5040477;28;20446;-74
2023/07/05 08:13:02;;;;;;;4.80;2.63;;;;;;;;;;5040557;28;20473;-75
2023/07/05 08:15:29;;;;;;;4.17;2.70;;;;;;;;;;5038794;28;20437;-76
2023/07/05 08:17:57;;;;;;;3.17;2.50;;;;;;;;;;5039569;28;20481;-75
2023/07/05 08:20:23;;;;;;;4.37;2.47;;;;;;;;;;5040074;28;20492;-80
2023/07/05 08:22:54;;;;;;;6.03;3.33;;;;;;;;;;5039223;28;20521;-76
2023/07/05 08:25:20;;;;;;;3.47;3.17;;;;;;;;;;5037813;28;20504;-75
2023/07/05 08:27:47;;;;;;;6.73;2.50;;;;;;;;;;5039738;28;20469;-77
2023/07/05 08:30:13;;;;;;;6.63;3.30;;;;;;;;;;5039992;28;20541;-76
2023/07/05 08:32:40;;;;;;;4.50;2.60;;;;;;;;;;5039233;28;20487;-75
2023/07/05 08:35:06;;;;;;;4.80;3.60;;;;;;;;;;5039582;28;20555;-77
2023/07/05 08:37:33;;;;;;;7.40;2.73;;;;;;;;;;5039397;28;20513;-79
2023/07/05 08:40:01;;;;;;;4.03;3.10;;;;;;;;;;5034295;28;20564;-75
2023/07/05 08:42:31;;;;;;;7.10;2.57;;;;;;;;;;5038551;28;20485;-73
2023/07/05 08:45:03;;;;;;;2.53;1.80;;;;;;;;;;5038617;28;20534;-74
2023/07/05 08:47:32;;;;;;;4.70;2.17;;;;;;;;;;5038253;28;20488;-75
2023/07/05 08:50:05;;;;;;;4.17;2.33;;;;;;;;;;5038907;28;20482;-75
2023/07/05 08:52:33;;;;;;;5.00;2.47;;;;;;;;;;5036224;28;20494;-74
2023/07/05 08:55:03;;;;;;;4.40;2.10;;;;;;;;;;5038906;28;20518;-74
2023/07/05 08:57:32;;;;;;;3.77;2.13;;;;;;;;;;5038584;28;20480;-75
2023/07/05 09:00:00;;;;;;;6.30;2.60;;;;;;;;;;5037661;28;20449;-74
2023/07/05 09:02:27;;;;;;;8.60;2.57;;;;;;;;;;5037760;28;20468;-79
2023/07/05 09:04:55;;;;;;;3.50;2.20;;;;;;;;;;5039112;28;20485;-75
2023/07/05 09:07:25;;;;;;;4.47;2.43;;;;;;;;;;5038201;28;20493;-77
2023/07/05 09:09:53;;;;;;;5.33;2.30;;;;;;;;;;5038636;28;20489;-74
2023/07/05 09:12:26;;;;;;;8.33;2.60;;;;;;;;;;5039813;28;20562;-76
2023/07/05 09:15:10;;;;;;;3.53;2.30;;;;;;;;;;5035773;28;20485;-76
2023/07/05 09:17:41;;;;;;;2.30;1.97;;;;;;;;;;5037570;28;20520;-83
2023/07/05 09:20:15;;;;;;;2.47;1.50;;;;;;;;;;5040367;28;20445;-75
2023/07/05 09:22:42;;;;;;;7.17;2.00;;;;;;;;;;5041103;28;20544;-73
2023/07/05 09:25:10;;;;;;;2.77;1.93;;;;;;;;;;5042098;28;20848;-75
2023/07/05 09:27:40;;;;;;;5.17;2.00;;;;;;;;;;5041410;28;21074;-75
2023/07/05 09:30:08;;;;;;;2.20;1.60;;;;;;;;;;5041660;28;20576;-75
2023/07/05 09:32:36;;;;;;;4.77;1.37;;;;;;;;;;5040870;28;20514;-79
2023/07/05 09:35:02;;;;;;;3.23;1.37;;;;;;;;;;5041375;28;21108;-74
2023/07/05 09:37:31;;;;;;;4.80;1.60;;;;;;;;;;5041092;28;20464;-76
2023/07/05 09:40:04;;;;;;;3.63;1.70;;;;;;;;;;5041585;28;20517;-74
2023/07/05 09:42:33;;;;;;;4.03;1.73;;;;;;;;;;5042307;28;20489;-74
2023/07/05 09:45:01;;;;;;;7.63;2.00;;;;;;;;;;5041535;28;20489;-77
2023/07/05 09:47:27;;;;;;;3.10;2.30;;;;;;;;;;5041127;28;20465;-75
2023/07/05 09:49:54;;;;;;;2.20;1.60;;;;;;;;;;5041823;28;20676;-75
2023/07/05 09:52:23;;;;;;;3.27;1.83;;;;;;;;;;5041551;28;20603;-73
2023/07/05 09:54:51;;;;;;;4.93;2.10;;;;;;;;;;5041310;28;20487;-74
2023/07/05 09:57:22;;;;;;;2.47;1.83;;;;;;;;;;5042036;28;20485;-75
2023/07/05 09:59:50;;;;;;;5.00;1.80;;;;;;;;;;5040760;28;20477;-74
2023/07/05 10:02:20;;;;;;;3.20;1.70;;;;;;;;;;5040638;28;20468;-72
2023/07/05 10:04:47;;;;;;;2.37;1.73;;;;;;;;;;5041578;28;20500;-75
2023/07/05 10:07:15;;;;;;;3.07;2.07;;;;;;;;;;5040966;28;20552;-78
2023/07/05 10:09:55;;;;;;;4.73;1.50;;;;;;;;;;5040846;28;20485;-74
2023/07/05 10:12:25;;;;;;;2.80;1.63;;;;;;;;;;5040995;28;20458;-74
2023/07/05 10:14:54;;;;;;;2.40;1.60;;;;;;;;;;5039565;28;20465;-75
2023/07/05 10:17:23;;;;;;;2.73;2.10;;;;;;;;;;5038761;28;20485;-75
2023/07/05 10:19:50;;;;;;;2.60;1.80;;;;;;;;;;5041620;28;20479;-75
2023/07/05 10:22:21;;;;;;;3.17;1.60;;;;;;;;;;5040588;28;20513;-77
2023/07/05 10:24:49;;;;;;;3.30;1.53;;;;;;;;;;5040821;28;20490;-81
2023/07/05 10:27:21;;;;;;;3.10;1.90;;;;;;;;;;5040970;28;20570;-75
2023/07/05 10:29:48;;;;;;;2.90;1.60;;;;;;;;;;5039831;28;20481;-75
2023/07/05 10:32:19;;;;;;;4.10;1.90;;;;;;;;;;5040859;28;20493;-77
2023/07/05 10:34:48;;;;;;;3.70;1.33;;;;;;;;;;5038933;28;20462;-75
2023/07/05 10:37:26;;;;;;;3.23;1.50;;;;;;;;;;5041098;28;20526;-76
2023/07/05 10:39:52;;;;;;;4.03;2.20;;;;;;;;;;5038576;28;20480;-75
2023/07/05 10:42:19;;;;;;;3.80;1.60;;;;;;;;;;5041832;28;20498;-74
2023/07/05 10:44:45;;;;;;;3.63;1.73;;;;;;;;;;5041208;28;20484;-75
2023/07/05 10:47:12;;;;;;;8.47;2.03;;;;;;;;;;5041436;28;20521;-75
2023/07/05 10:49:39;;;;;;;4.90;1.83;;;;;;;;;;5041824;28;20497;-75
2023/07/05 10:52:11;;;;;;;2.13;1.73;;;;;;;;;;5034993;28;20484;-75
2023/07/05 10:54:42;;;;;;;5.90;1.63;;;;;;;;;;5041365;28;20460;-75
2023/07/05 10:57:14;;;;;;;3.83;1.87;;;;;;;;;;5041699;28;20973;-74
2023/07/05 10:59:43;;;;;;;2.37;1.70;;;;;;;;;;5025216;28;20495;-75
2023/07/05 11:02:19;;;;;;;3.40;1.87;;;;;;;;;;5040286;28;20896;-76
2023/07/05 11:04:46;;;;;;;2.70;1.57;;;;;;;;;;5039851;28;20445;-75
2023/07/05 11:07:14;;;;;;;4.90;1.83;;;;;;;;;;5040872;28;20978;-75
2023/07/05 11:09:41;;;;;;;4.00;1.60;;;;;;;;;;5041352;28;20482;-76
2023/07/05 11:12:13;;;;;;;8.30;1.63;;;;;;;;;;5039648;28;20496;-76
2023/07/05 11:14:40;;;;;;;6.10;1.83;;;;;;;;;;5040545;28;20479;-75
2023/07/05 11:17:12;;;;;;;6.43;1.77;;;;;;;;;;5040942;28;20480;-81
2023/07/05 11:19:39;;;;;;;5.13;1.90;;;;;;;;;;5042568;28;20481;-81
2023/07/05 11:22:06;;;;;;;4.03;2.10;;;;;;;;;;5041312;28;20500;-77
2023/07/05 11:24:43;;;;;;;3.13;1.80;;;;;;;;;;5041522;28;20458;-78
2023/07/05 11:27:24;;;;;;;3.73;1.83;;;;;;;;;;5041484;28;20465;-78
2023/07/05 11:29:52;;;;;;;5.63;1.60;;;;;;;;;;5040252;28;20939;-78
2023/07/05 11:32:19;;;;;;;6.20;1.87;;;;;;;;;;5041325;28;20442;-76
2023/07/05 11:34:47;;;;;;;6.07;1.90;;;;;;;;;;5032992;28;20481;-76
2023/07/05 11:37:33;;;;;;;5.10;1.80;;;;;;;;;;5034863;28;20488;-80
2023/07/05 11:40:05;;;;;;;6.57;2.00;;;;;;;;;;5038292;28;20974;-79
2023/07/05 11:42:39;;;;;;;5.50;1.47;;;;;;;;;;5040975;28;20595;-78
2023/07/05 11:45:21;;;;;;;9.47;2.10;;;;;;;;;;5034062;28;20902;-79
2023/07/05 11:47:48;;;;;;;3.67;1.67;;;;;;;;;;5037394;28;20496;-78
2023/07/05 11:50:14;;;;;;;4.27;2.00;;;;;;;;;;5040937;28;20945;-78
2023/07/05 11:52:43;;;;;;;4.40;2.13;;;;;;;;;;5040710;28;20478;-79
2023/07/05 11:55:13;;;;;;;6.83;1.77;;;;;;;;;;5035625;28;20530;-77
2023/07/05 11:57:43;;;;;;;15.47;2.23;;;;;;;;;;5040771;28;20493;-78
2023/07/05 12:00:14;;;;;;;8.07;1.60;;;;;;;;;;5041124;28;20445;-78
2023/07/05 12:02:53;;;;;;;5.40;1.90;;;;;;;;;;5040616;28;20517;-80
2023/07/05 12:05:21;;;;;;;5.60;2.10;;;;;;;;;;5033609;28;20833;-80
2023/07/05 12:07:48;;;;;;;4.47;1.50;;;;;;;;;;5039621;28;20573;-77
2023/07/05 12:10:19;;;;;;;6.27;1.60;;;;;;;;;;5040571;28;20521;-75
2023/07/05 12:12:45;;;;;;;3.93;2.00;;;;;;;;;;5040148;28;20454;-77
2023/07/05 12:15:12;;;;;;;7.33;2.20;;;;;;;;;;5040618;28;20530;-80
2023/07/05 12:17:39;;;;;;;5.77;1.83;;;;;;;;;;5039684;28;20480;-78
2023/07/05 12:20:13;;;;;;;4.40;1.63;;;;;;;;;;5039983;28;20810;-79
2023/07/05 12:22:40;;;;;;;4.33;1.90;;;;;;;;;;5040599;28;20456;-77
2023/07/05 12:25:09;;;;;;;4.00;2.00;;;;;;;;;;5039133;28;20561;-77
2023/07/05 12:27:36;;;;;;;8.60;2.67;;;;;;;;;;5028865;28;20489;-77
2023/07/05 12:30:03;;;;;;;10.03;2.20;;;;;;;;;;5037916;28;20477;-78
2023/07/05 12:32:31;;;;;;;2.83;1.57;;;;;;;;;;5025605;28;20451;-79
2023/07/05 12:35:13;;;;;;;4.77;1.50;;;;;;;;;;5032640;28;20546;-76
2023/07/05 12:37:40;;;;;;;4.37;1.80;;;;;;;;;;5025706;28;20459;-79
2023/07/05 12:40:36;;;;;;;6.50;1.90;;;;;;;;;;5038115;28;20537;-77
2023/07/05 12:43:05;;;;;;;4.07;2.10;;;;;;;;;;4973430;28;20531;-80
2023/07/05 12:45:33;;;;;;;8.10;2.00;;;;;;;;;;5020604;28;20490;-79
2023/07/05 12:48:13;;;;;;;8.40;2.47;;;;;;;;;;5043294;28;20501;-80
2023/07/05 12:50:40;;;;;;;5.60;2.03;;;;;;;;;;5050921;28;20500;-78
2023/07/05 12:53:12;;;;;;;6.00;2.10;;;;;;;;;;5043972;28;20484;-81
2023/07/05 12:55:39;;;;;;;8.50;2.10;;;;;;;;;;5043222;28;20485;-78
2023/07/05 12:58:07;;;;;;;4.60;2.00;;;;;;;;;;5043878;28;20480;-78
2023/07/05 13:00:35;;;;;;;3.93;1.77;;;;;;;;;;5038902;28;20477;-78
2023/07/05 13:03:04;;;;;;;5.77;2.03;;;;;;;;;;5040654;28;20466;-81
2023/07/05 13:05:30;;;;;;;5.27;1.77;;;;;;;;;;5041282;28;20548;-79
2023/07/05 13:07:59;;;;;;;10.07;2.73;;;;;;;;;;5045180;28;21037;-76
2023/07/05 13:10:26;;;;;;;5.90;2.43;;;;;;;;;;5044521;28;20481;-78
2023/07/05 13:12:55;;;;;;;8.10;2.03;;;;;;;;;;5043425;28;20522;-78
2023/07/05 13:15:31;;;;;;;8.83;1.90;;;;;;;;;;5044713;28;20518;-76
2023/07/05 13:18:13;;;;;;;3.40;1.57;;;;;;;;;;5042185;28;20484;-77
2023/07/05 13:20:39;;;;;;;6.63;2.40;;;;;;;;;;5036367;28;20509;-76
2023/07/05 13:23:07;;;;;;;7.40;2.33;;;;;;;;;;5043329;28;20472;-77
2023/07/05 13:25:39;;;;;;;5.00;2.00;;;;;;;;;;5041801;28;20492;-77
2023/07/05 13:28:06;;;;;;;5.20;2.20;;;;;;;;;;5042641;28;20477;-75
2023/07/05 13:30:34;;;;;;;5.77;2.70;;;;;;;;;;5043129;28;20465;-76
2023/07/05 13:33:04;;;;;;;3.93;2.00;;;;;;;;;;5042426;28;20464;-75
2023/07/05 13:35:32;;;;;;;4.90;2.30;;;;;;;;;;5042534;28;20462;-77
2023/07/05 13:37:59;;;;;;;5.00;2.17;;;;;;;;;;5039927;28;20470;-75
2023/07/05 13:40:26;;;;;;;7.63;2.10;;;;;;;;;;5035158;28;20474;-75
2023/07/05 13:42:54;;;;;;;9.33;2.60;;;;;;;;;;5040093;28;21316;-77
2023/07/05 13:45:22;;;;;;;4.40;2.20;;;;;;;;;;5039301;28;20549;-78
2023/07/05 13:47:49;;;;;;;6.70;2.10;;;;;;;;;;5035171;28;20529;-75
2023/07/05 13:50:16;;;;;;;4.87;2.33;;;;;;;;;;5042594;28;20492;-74
2023/07/05 13:52:43;;;;;;;3.40;1.67;;;;;;;;;;5043026;28;20977;-75
2023/07/05 13:55:15;;;;;;;5.10;2.03;;;;;;;;;;5040639;28;20493;-75
2023/07/05 13:57:51;;;;;;;6.00;1.90;;;;;;;;;;5040578;28;20486;-77
2023/07/05 14:00:18;;;;;;;6.83;2.10;;;;;;;;;;5046120;28;20492;-76
2023/07/05 14:02:45;;;;;;;6.77;2.53;;;;;;;;;;5042619;28;20469;-76
2023/07/05 14:05:13;;;;;;;7.63;1.73;;;;;;;;;;5041647;28;20488;-78
2023/07/05 14:07:39;;;;;;;6.43;1.93;;;;;;;;;;5043180;28;20525;-77
2023/07/05 14:10:06;;;;;;;5.73;1.70;;;;;;;;;;5043729;28;20505;-77
2023/07/05 14:12:33;;;;;;;6.03;2.10;;;;;;;;;;5042250;28;20581;-76
2023/07/05 14:14:59;;;;;;;9.00;2.13;;;;;;;;;;5042255;28;20465;-75
2023/07/05 14:17:26;;;;;;;7.80;2.30;;;;;;;;;;5038280;28;20461;-76
2023/07/05 14:19:52;;;;;;;4.60;1.77;;;;;;;;;;5038243;28;20850;-75
2023/07/05 14:22:21;;;;;;;8.60;2.10;;;;;;;;;;5042639;28;20838;-77
2023/07/05 14:24:48;;;;;;;6.10;2.30;;;;;;;;;;5042066;28;20460;-77
2023/07/05 14:27:16;;;;;;;3.10;1.43;;;;;;;;;;5031342;28;20454;-75
2023/07/05 14:29:44;;;;;;;5.40;2.00;;;;;;;;;;5034444;28;20461;-75
2023/07/05 14:32:10;;;;;;;4.53;1.73;;;;;;;;;;5033891;28;20512;-77
2023/07/05 14:34:37;;;;;;;4.63;2.13;;;;;;;;;;5033676;28;20537;-76
2023/07/05 14:37:04;;;;;;;4.07;1.73;;;;;;;;;;5045774;28;20908;-78
2023/07/05 14:39:31;;;;;;;2.77;1.70;;;;;;;;;;5050280;28;20477;-75
2023/07/05 14:41:58;;;;;;;4.93;1.90;;;;;;;;;;5039955;28;21549;-75
2023/07/05 14:44:24;;;;;;;6.83;2.60;;;;;;;;;;5038762;28;20458;-75